createdAt,value
2018-07-21T00:00:00.464Z,6.77
2018-07-21T00:02:30.362Z,7.27
2018-07-21T00:04:59.347Z,5.73
2018-07-21T00:07:29.501Z,8.63
2018-07-21T00:09:59.875Z,8.97
2018-07-21T00:12:28.899Z,7.73
2018-07-21T00:14:57.632Z,7.00
2018-07-21T00:17:26.951Z,5.77
2018-07-21T00:19:56.501Z,6.10
2018-07-21T00:22:26.267Z,8.87
2018-07-21T00:24:55.071Z,9.00
2018-07-21T00:27:25.100Z,6.97
2018-07-21T00:29:54.600Z,8.67
2018-07-21T00:32:25.060Z,10.03
2018-07-21T00:34:53.806Z,6.87
2018-07-21T00:37:22.607Z,11.00
2018-07-21T00:39:51.981Z,8.33
2018-07-21T00:42:20.783Z,9.87
2018-07-21T00:44:49.562Z,9.37
2018-07-21T00:47:18.394Z,7.87
2018-07-21T00:49:47.107Z,8.43
2018-07-21T00:52:16.156Z,6.93
2018-07-21T00:54:45.055Z,7.30
2018-07-21T00:57:14.754Z,6.63
2018-07-21T00:59:43.596Z,7.27
2018-07-21T01:02:13.178Z,8.27
2018-07-21T01:04:41.923Z,8.40
2018-07-21T01:07:10.667Z,7.00
2018-07-21T01:09:40.524Z,8.40
2018-07-21T01:12:09.411Z,7.20
2018-07-21T01:14:38.168Z,7.40
2018-07-21T01:17:07.666Z,7.27
2018-07-21T01:19:37.198Z,10.13
2018-07-21T01:22:06.193Z,8.43
2018-07-21T01:24:35.389Z,9.40
2018-07-21T01:27:04.195Z,9.47
2018-07-21T01:29:33.889Z,9.00
2018-07-21T01:32:02.812Z,9.43
2018-07-21T01:34:31.802Z,10.37
2018-07-21T01:37:00.948Z,8.10
2018-07-21T01:39:30.523Z,9.67
2018-07-21T01:41:59.373Z,8.07
2018-07-21T01:44:28.079Z,8.67
2018-07-21T01:46:56.834Z,9.33
2018-07-21T01:49:25.578Z,8.77
2018-07-21T01:51:54.496Z,8.17
2018-07-21T01:54:23.320Z,9.10
2018-07-21T01:56:53.186Z,9.63
2018-07-21T01:59:22.132Z,9.23
2018-07-21T02:01:51.529Z,8.50
2018-07-21T02:04:20.305Z,7.67
2018-07-21T02:06:49.068Z,8.90
2018-07-21T02:09:17.898Z,7.43
2018-07-21T02:11:47.181Z,9.03
2018-07-21T02:14:15.921Z,7.50
2018-07-21T02:16:44.665Z,8.73
2018-07-21T02:19:13.459Z,6.70
2018-07-21T02:21:42.191Z,8.33
2018-07-21T02:24:11.552Z,8.20
2018-07-21T02:26:41.003Z,7.57
2018-07-21T02:29:10.330Z,10.27
2018-07-21T02:31:39.085Z,9.53
2018-07-21T02:34:07.839Z,8.13
2018-07-21T02:36:36.980Z,9.20
2018-07-21T02:39:08.571Z,6.80
2018-07-21T02:41:37.429Z,8.90
2018-07-21T02:44:06.220Z,10.17
2018-07-21T02:46:35.512Z,9.97
2018-07-21T02:49:04.267Z,7.17
2018-07-21T02:51:33.141Z,8.17
2018-07-21T02:54:02.370Z,6.63
2018-07-21T02:56:32.301Z,6.63
2018-07-21T02:59:02.160Z,6.67
2018-07-21T03:01:31.915Z,8.03
2018-07-21T03:04:00.954Z,6.73
2018-07-21T03:06:29.824Z,8.37
2018-07-21T03:08:58.649Z,6.40
2018-07-21T03:11:27.373Z,6.50
2018-07-21T03:13:56.244Z,6.77
2018-07-21T03:16:25.069Z,6.77
2018-07-21T03:18:53.836Z,6.83
2018-07-21T03:21:22.667Z,5.73
2018-07-21T03:23:52.321Z,7.27
2018-07-21T03:26:22.169Z,8.87
2018-07-21T03:28:51.827Z,8.53
2018-07-21T03:31:20.601Z,9.47
2018-07-21T03:33:49.331Z,7.83
2018-07-21T03:36:18.249Z,7.67
2018-07-21T03:38:47.035Z,7.13
2018-07-21T03:41:15.935Z,11.20
2018-07-21T03:43:44.736Z,9.70
2018-07-21T03:46:13.575Z,10.23
2018-07-21T03:48:42.337Z,8.67
2018-07-21T03:51:11.160Z,11.63
2018-07-21T03:53:40.610Z,7.83
2018-07-21T03:56:10.044Z,9.40
2018-07-21T03:58:38.829Z,8.10
2018-07-21T04:01:08.164Z,8.10
2018-07-21T04:03:37.635Z,8.23
2018-07-21T04:06:06.398Z,9.60
2018-07-21T04:08:35.128Z,9.00
2018-07-21T04:11:03.925Z,7.93
2018-07-21T04:13:32.985Z,7.87
2018-07-21T04:16:02.040Z,10.13
2018-07-21T04:18:30.985Z,8.33
2018-07-21T04:20:59.741Z,8.40
2018-07-21T04:23:29.291Z,9.53
2018-07-21T04:25:58.056Z,9.17
2018-07-21T04:28:27.693Z,7.00
2018-07-21T04:30:56.555Z,7.70
2018-07-21T04:33:25.308Z,10.07
2018-07-21T04:35:54.115Z,8.53
2018-07-21T04:38:23.332Z,6.93
2018-07-21T04:40:52.299Z,7.90
2018-07-21T04:43:21.249Z,8.57
2018-07-21T04:45:50.074Z,9.13
2018-07-21T04:48:19.042Z,9.93
2018-07-21T04:50:47.846Z,10.83
2018-07-21T04:53:17.292Z,8.07
2018-07-21T04:55:46.694Z,6.20
2018-07-21T04:58:15.690Z,10.33
2018-07-21T05:00:44.550Z,8.43
2018-07-21T05:03:14.100Z,7.07
2018-07-21T05:05:42.871Z,6.37
2018-07-21T05:08:11.795Z,8.60
2018-07-21T05:10:40.629Z,10.50
2018-07-21T05:13:09.383Z,10.13
2018-07-21T05:15:38.278Z,11.30
2018-07-21T05:18:07.173Z,8.07
2018-07-21T05:20:35.933Z,8.43
2018-07-21T05:23:05.382Z,6.87
2018-07-21T05:25:34.507Z,8.50
2018-07-21T05:28:04.325Z,8.57
2018-07-21T05:30:33.403Z,6.00
2018-07-21T05:33:02.306Z,6.23
2018-07-21T05:35:31.173Z,9.03
2018-07-21T05:37:59.967Z,9.43
2018-07-21T05:40:28.883Z,9.93
2018-07-21T05:42:57.685Z,7.87
2018-07-21T05:45:26.481Z,7.17
2018-07-21T05:47:55.287Z,7.67
2018-07-21T05:50:24.158Z,5.00
2018-07-21T05:52:53.559Z,10.97
2018-07-21T05:55:23.274Z,6.37
2018-07-21T05:57:52.196Z,8.20
2018-07-21T06:00:20.955Z,8.50
2018-07-21T06:02:50.363Z,6.73
2018-07-21T06:05:19.055Z,9.37
2018-07-21T06:07:47.800Z,4.87
2018-07-21T06:10:16.750Z,6.33
2018-07-21T06:12:45.511Z,6.23
2018-07-21T06:15:14.467Z,7.27
2018-07-21T06:17:43.519Z,6.67
2018-07-21T06:20:12.296Z,6.33
2018-07-21T06:22:41.074Z,9.43
2018-07-21T06:25:10.650Z,6.47
2018-07-21T06:27:40.130Z,5.27
2018-07-21T06:30:09.404Z,9.20
2018-07-21T06:32:38.188Z,8.83
2018-07-21T06:35:07.207Z,8.33
2018-07-21T06:37:36.046Z,5.80
2018-07-21T06:40:05.983Z,5.50
2018-07-21T06:42:34.876Z,5.97
2018-07-21T06:45:04.018Z,8.27
2018-07-21T06:47:33.035Z,6.33
2018-07-21T06:50:01.956Z,11.20
2018-07-21T06:52:32.432Z,5.67
2018-07-21T06:55:02.924Z,10.23
2018-07-21T06:57:32.061Z,7.10
2018-07-21T07:00:01.081Z,5.80
2018-07-21T07:02:31.081Z,5.97
2018-07-21T07:04:59.804Z,7.93
2018-07-21T07:07:28.665Z,7.30
2018-07-21T07:09:57.431Z,9.33
2018-07-21T07:12:26.171Z,5.37
2018-07-21T07:14:55.262Z,6.73
2018-07-21T07:17:24.135Z,5.83
2018-07-21T07:19:52.939Z,8.43
2018-07-21T07:22:21.730Z,6.93
2018-07-21T07:24:51.389Z,4.77
2018-07-21T07:27:20.911Z,8.03
2018-07-21T07:29:50.634Z,5.00
2018-07-21T07:32:19.472Z,7.93
2018-07-21T07:34:48.261Z,6.57
2018-07-21T07:37:17.093Z,7.50
2018-07-21T07:39:45.850Z,6.10
2018-07-21T07:42:14.709Z,9.63
2018-07-21T07:44:43.565Z,9.27
2018-07-21T07:47:12.509Z,5.97
2018-07-21T07:49:41.315Z,5.33
2018-07-21T07:52:10.731Z,6.27
2018-07-21T07:54:39.615Z,5.13
2018-07-21T07:57:09.378Z,6.13
2018-07-21T07:59:38.194Z,5.73
2018-07-21T08:02:07.632Z,7.47
2018-07-21T08:04:36.387Z,5.20
2018-07-21T08:07:05.255Z,5.73
2018-07-21T08:09:34.218Z,4.40
2018-07-21T08:12:03.223Z,8.40
2018-07-21T08:14:32.332Z,5.93
2018-07-21T08:17:01.287Z,6.03
2018-07-21T08:19:30.099Z,6.53
2018-07-21T08:21:58.903Z,4.93
2018-07-21T08:24:28.678Z,8.07
2018-07-21T08:26:58.182Z,4.43
2018-07-21T08:29:27.675Z,7.20
2018-07-21T08:31:56.487Z,4.77
2018-07-21T08:34:25.238Z,6.93
2018-07-21T08:36:54.094Z,5.73
2018-07-21T08:39:22.811Z,6.20
2018-07-21T08:41:52.319Z,6.37
2018-07-21T08:44:21.114Z,6.23
2018-07-21T08:46:49.895Z,6.33
2018-07-21T08:49:18.674Z,4.87
2018-07-21T08:51:48.033Z,7.53
2018-07-21T08:54:16.846Z,4.77
2018-07-21T08:56:46.519Z,4.63
2018-07-21T08:59:15.520Z,5.43
2018-07-21T09:01:44.854Z,4.17
2018-07-21T09:04:13.694Z,5.43
2018-07-21T09:06:42.476Z,6.20
2018-07-21T09:09:12.720Z,6.37
2018-07-21T09:11:41.984Z,5.67
2018-07-21T09:14:10.884Z,6.40
2018-07-21T09:16:39.746Z,7.77
2018-07-21T09:19:08.642Z,5.77
2018-07-21T09:21:37.488Z,5.80
2018-07-21T09:24:06.807Z,5.57
2018-07-21T09:26:36.140Z,5.93
2018-07-21T09:29:05.736Z,4.77
2018-07-21T09:31:34.986Z,4.53
2018-07-21T09:34:04.780Z,6.10
2018-07-21T09:36:33.748Z,4.53
2018-07-21T09:39:02.836Z,5.17
2018-07-21T09:41:31.963Z,4.13
2018-07-21T09:44:00.751Z,3.83
2018-07-21T09:46:29.467Z,4.00
2018-07-21T09:48:58.197Z,5.13
2018-07-21T09:51:28.057Z,4.80
2018-07-21T09:53:56.819Z,4.80
2018-07-21T09:56:26.360Z,4.23
2018-07-21T09:58:55.134Z,7.33
2018-07-21T10:01:24.628Z,4.63
2018-07-21T10:03:53.865Z,4.77
2018-07-21T10:06:22.663Z,4.07
2018-07-21T10:08:51.467Z,4.60
2018-07-21T10:11:20.244Z,6.60
2018-07-21T10:13:49.013Z,5.10
2018-07-21T10:16:17.866Z,4.47
2018-07-21T10:18:46.681Z,5.00
2018-07-21T10:21:15.444Z,4.90
2018-07-21T10:23:45.168Z,6.50
2018-07-21T10:26:19.301Z,4.23
2018-07-21T10:28:54.077Z,5.27
2018-07-21T10:31:22.823Z,4.53
2018-07-21T10:33:51.566Z,5.23
2018-07-21T10:36:20.377Z,5.23
2018-07-21T10:38:49.195Z,5.00
2018-07-21T10:41:17.996Z,4.97
2018-07-21T10:43:46.919Z,5.07
2018-07-21T10:46:15.692Z,5.67
2018-07-21T10:48:44.488Z,6.47
2018-07-21T10:51:13.394Z,6.27
2018-07-21T10:53:42.941Z,4.40
2018-07-21T10:56:12.094Z,5.57
2018-07-21T10:58:40.845Z,4.87
2018-07-21T11:01:10.626Z,5.47
2018-07-21T11:03:40.414Z,4.77
2018-07-21T11:06:09.200Z,4.67
2018-07-21T11:08:37.938Z,5.50
2018-07-21T11:11:07.100Z,6.67
2018-07-21T11:13:35.823Z,5.50
2018-07-21T11:16:04.859Z,5.23
2018-07-21T11:18:33.992Z,5.77
2018-07-21T11:21:03.199Z,5.30
2018-07-21T11:23:32.908Z,5.90
2018-07-21T11:26:01.953Z,5.50
2018-07-21T11:28:32.585Z,6.97
2018-07-21T11:31:01.525Z,5.13
2018-07-21T11:33:30.313Z,6.80
2018-07-21T11:35:59.393Z,5.03
2018-07-21T11:38:27.874Z,5.97
2018-07-21T11:40:56.745Z,5.17
2018-07-21T11:43:25.547Z,5.63
2018-07-21T11:45:54.325Z,5.83
2018-07-21T11:48:23.118Z,5.83
2018-07-21T11:50:52.036Z,5.43
2018-07-21T11:53:21.584Z,5.93
2018-07-21T11:55:51.495Z,8.20
2018-07-21T11:58:20.288Z,7.03
2018-07-21T12:00:49.046Z,6.70
2018-07-21T12:03:18.411Z,8.43
2018-07-21T12:05:47.255Z,7.37
2018-07-21T12:08:16.160Z,7.50
2018-07-21T12:10:44.936Z,5.50
2018-07-21T12:13:13.705Z,6.27
2018-07-21T12:15:42.655Z,8.37
2018-07-21T12:18:11.447Z,7.50
2018-07-21T12:20:40.202Z,6.57
2018-07-21T12:23:09.952Z,5.17
2018-07-21T12:25:38.786Z,7.53
2018-07-21T12:28:08.413Z,5.93
2018-07-21T12:30:37.181Z,6.53
2018-07-21T12:33:06.020Z,6.30
2018-07-21T12:35:34.981Z,5.97
2018-07-21T12:38:04.548Z,6.27
2018-07-21T12:40:33.952Z,6.00
2018-07-21T12:43:02.996Z,7.77
2018-07-21T12:45:32.556Z,7.83
2018-07-21T12:48:01.542Z,9.50
2018-07-21T12:50:30.422Z,7.80
2018-07-21T12:53:00.001Z,6.80
2018-07-21T12:55:29.808Z,6.73
2018-07-21T12:57:58.571Z,7.53
2018-07-21T13:00:27.731Z,7.03
2018-07-21T13:02:57.036Z,8.53
2018-07-21T13:05:25.838Z,6.73
2018-07-21T13:07:54.564Z,8.73
2018-07-21T13:10:23.343Z,8.73
2018-07-21T13:12:52.107Z,6.70
2018-07-21T13:15:20.958Z,7.20
2018-07-21T13:17:49.912Z,7.43
2018-07-21T13:20:18.673Z,7.23
2018-07-21T13:22:47.432Z,8.60
2018-07-21T13:25:17.309Z,6.53
2018-07-21T13:27:48.434Z,8.87
2018-07-21T13:30:17.213Z,6.60
2018-07-21T13:32:45.979Z,6.70
2018-07-21T13:35:14.764Z,7.57
2018-07-21T13:37:43.577Z,6.60
2018-07-21T13:40:12.545Z,6.37
2018-07-21T13:42:41.357Z,8.10
2018-07-21T13:45:10.136Z,8.20
2018-07-21T13:47:39.212Z,6.87
2018-07-21T13:50:08.080Z,7.63
2018-07-21T13:52:37.673Z,7.10
2018-07-21T13:55:07.384Z,6.37
2018-07-21T13:57:36.110Z,7.03
2018-07-21T14:00:05.174Z,6.80
2018-07-21T14:02:34.788Z,8.47
2018-07-21T14:05:03.871Z,7.67
2018-07-21T14:07:33.233Z,6.70
2018-07-21T14:10:02.386Z,6.87
2018-07-21T14:12:31.367Z,8.77
2018-07-21T14:15:00.247Z,7.47
2018-07-21T14:17:29.203Z,7.90
2018-07-21T14:19:57.997Z,7.03
2018-07-21T14:22:26.771Z,8.40
2018-07-21T14:24:56.005Z,8.80
2018-07-21T14:27:25.617Z,7.03
2018-07-21T14:29:55.371Z,7.27
2018-07-21T14:32:24.181Z,6.70
2018-07-21T14:34:52.905Z,6.87
2018-07-21T14:37:21.709Z,6.17
2018-07-21T14:39:50.471Z,7.33
2018-07-21T14:42:20.236Z,6.50
2018-07-21T14:44:49.075Z,7.70
2018-07-21T14:47:17.892Z,6.87
2018-07-21T14:49:46.631Z,7.50
2018-07-21T14:52:16.255Z,6.50
2018-07-21T14:54:45.831Z,6.33
2018-07-21T14:57:15.965Z,7.47
2018-07-21T14:59:44.761Z,6.93
2018-07-21T15:02:14.301Z,6.50
2018-07-21T15:04:43.068Z,6.53
2018-07-21T15:07:12.071Z,6.37
2018-07-21T15:09:40.868Z,5.63
2018-07-21T15:12:09.640Z,9.03
2018-07-21T15:14:38.626Z,5.40
2018-07-21T15:17:07.447Z,7.47
2018-07-21T15:19:36.155Z,6.20
2018-07-21T15:22:05.359Z,4.90
2018-07-21T15:24:35.418Z,6.70
2018-07-21T15:27:04.931Z,6.87
2018-07-21T15:29:34.699Z,7.20
2018-07-21T15:32:03.714Z,8.30
2018-07-21T15:34:32.729Z,6.13
2018-07-21T15:37:02.268Z,9.67
2018-07-21T15:39:31.931Z,7.97
2018-07-21T15:42:00.775Z,6.83
2018-07-21T15:44:29.564Z,5.83
2018-07-21T15:46:58.356Z,6.60
2018-07-21T15:49:27.084Z,6.60
2018-07-21T15:51:56.644Z,5.23
2018-07-21T15:54:25.426Z,6.17
2018-07-21T15:56:54.908Z,6.43
2018-07-21T15:59:23.695Z,5.30
2018-07-21T16:01:53.312Z,5.27
2018-07-21T16:04:22.123Z,5.43
2018-07-21T16:06:50.907Z,5.90
2018-07-21T16:09:19.711Z,6.70
2018-07-21T16:11:48.465Z,5.87
2018-07-21T16:14:17.351Z,4.83
2018-07-21T16:16:46.191Z,5.20
2018-07-21T16:19:14.947Z,7.03
2018-07-21T16:21:43.792Z,5.03
2018-07-21T16:24:13.328Z,4.57
2018-07-21T16:26:42.886Z,7.53
2018-07-21T16:29:12.409Z,4.40
2018-07-21T16:31:41.170Z,5.10
2018-07-21T16:34:09.908Z,5.10
2018-07-21T16:36:38.695Z,7.17
2018-07-21T16:39:09.574Z,4.73
2018-07-21T16:41:38.507Z,6.80
2018-07-21T16:44:07.322Z,4.47
2018-07-21T16:46:36.224Z,6.13
2018-07-21T16:49:05.060Z,7.37
2018-07-21T16:51:34.802Z,5.00
2018-07-21T16:54:03.889Z,4.90
2018-07-21T16:56:33.822Z,6.63
2018-07-21T16:59:03.160Z,4.83
2018-07-21T17:01:33.074Z,4.83
2018-07-21T17:04:02.156Z,5.50
2018-07-21T17:06:31.388Z,7.40
2018-07-21T17:09:00.230Z,5.90
2018-07-21T17:11:29.516Z,5.60
2018-07-21T17:13:58.439Z,5.50
2018-07-21T17:16:27.202Z,5.20
2018-07-21T17:18:55.991Z,4.87
2018-07-21T17:21:24.680Z,5.30
2018-07-21T17:23:54.511Z,4.33
2018-07-21T17:26:23.915Z,5.20
2018-07-21T17:28:53.432Z,4.70
2018-07-21T17:31:22.209Z,5.00
2018-07-21T17:33:50.975Z,5.63
2018-07-21T17:36:19.747Z,5.47
2018-07-21T17:38:49.188Z,5.37
2018-07-21T17:41:18.108Z,5.40
2018-07-21T17:43:46.867Z,4.53
2018-07-21T17:46:15.703Z,4.60
2018-07-21T17:48:44.596Z,3.73
2018-07-21T17:51:13.676Z,4.63
2018-07-21T17:53:43.257Z,4.00
2018-07-21T17:56:12.482Z,4.40
2018-07-21T17:58:41.318Z,3.60
2018-07-21T18:01:10.746Z,4.23
2018-07-21T18:03:40.319Z,4.57
2018-07-21T18:06:09.320Z,4.47
2018-07-21T18:08:38.079Z,3.60
2018-07-21T18:11:06.903Z,3.60
2018-07-21T18:13:35.653Z,3.60
2018-07-21T18:16:04.764Z,2.87
2018-07-21T18:18:36.767Z,5.33
2018-07-21T18:21:05.551Z,3.33
2018-07-21T18:23:35.230Z,3.17
2018-07-21T18:26:04.725Z,3.33
2018-07-21T18:28:34.460Z,4.70
2018-07-21T18:31:04.188Z,3.23
2018-07-21T18:33:33.170Z,3.40
2018-07-21T18:36:02.432Z,2.33
2018-07-21T18:38:31.338Z,3.60
2018-07-21T18:41:00.202Z,3.63
2018-07-21T18:43:28.975Z,3.57
2018-07-21T18:45:57.732Z,4.20
2018-07-21T18:48:26.524Z,5.40
2018-07-21T18:50:55.341Z,3.73
2018-07-21T18:53:25.274Z,3.80
2018-07-21T18:55:54.775Z,2.73
2018-07-21T18:58:23.519Z,2.80
2018-07-21T19:00:52.936Z,2.53
2018-07-21T19:03:22.355Z,4.13
2018-07-21T19:05:51.100Z,3.23
2018-07-21T19:08:23.260Z,3.87
2018-07-21T19:10:53.759Z,2.87
2018-07-21T19:13:22.602Z,3.40
2018-07-21T19:15:58.178Z,2.57
2018-07-21T19:18:26.903Z,3.73
2018-07-21T19:21:00.957Z,3.90
2018-07-21T19:23:33.338Z,2.77
2018-07-21T19:26:07.183Z,5.57
2018-07-21T19:28:36.887Z,3.87
2018-07-21T19:31:05.948Z,2.97
2018-07-21T19:33:34.874Z,3.83
2018-07-21T19:36:04.000Z,3.63
2018-07-21T19:38:33.034Z,3.10
2018-07-21T19:41:08.014Z,2.80
2018-07-21T19:43:36.800Z,2.50
2018-07-21T19:46:05.816Z,2.47
2018-07-21T19:48:34.639Z,3.73
2018-07-21T19:51:04.397Z,2.83
2018-07-21T19:53:36.026Z,3.33
2018-07-21T19:56:05.956Z,2.23
2018-07-21T19:58:34.948Z,2.57
2018-07-21T20:01:04.618Z,4.73
2018-07-21T20:03:34.480Z,3.70
2018-07-21T20:06:03.576Z,2.40
2018-07-21T20:08:32.903Z,2.87
2018-07-21T20:11:01.943Z,3.73
2018-07-21T20:13:30.851Z,4.10
2018-07-21T20:15:59.913Z,2.40
2018-07-21T20:18:28.772Z,2.97
2018-07-21T20:20:57.703Z,2.20
2018-07-21T20:23:27.643Z,2.77
2018-07-21T20:25:56.383Z,3.77
2018-07-21T20:28:25.937Z,3.20
2018-07-21T20:30:54.851Z,3.63
2018-07-21T20:33:23.678Z,3.90
2018-07-21T20:35:52.471Z,3.93
2018-07-21T20:38:21.258Z,5.33
2018-07-21T20:40:50.290Z,3.07
2018-07-21T20:43:19.198Z,4.20
2018-07-21T20:45:47.938Z,4.00
2018-07-21T20:48:16.803Z,2.57
2018-07-21T20:50:45.737Z,3.07
2018-07-21T20:53:14.962Z,5.47
2018-07-21T20:55:44.226Z,3.23
2018-07-21T20:58:12.992Z,5.00
2018-07-21T21:00:41.739Z,3.73
2018-07-21T21:03:11.108Z,3.23
2018-07-21T21:05:39.843Z,3.03
2018-07-21T21:08:08.571Z,2.77
2018-07-21T21:10:37.353Z,2.93
2018-07-21T21:13:06.484Z,3.50
2018-07-21T21:15:35.377Z,2.53
2018-07-21T21:18:04.559Z,4.20
2018-07-21T21:20:33.680Z,4.60
2018-07-21T21:23:03.437Z,2.97
2018-07-21T21:25:32.860Z,4.37
2018-07-21T21:28:02.400Z,3.60
2018-07-21T21:30:31.302Z,3.27
2018-07-21T21:33:00.116Z,3.73
2018-07-21T21:35:28.866Z,4.27
2018-07-21T21:37:57.595Z,4.57
2018-07-21T21:40:26.489Z,3.13
2018-07-21T21:42:55.277Z,4.37
2018-07-21T21:45:24.015Z,2.60
2018-07-21T21:47:52.801Z,3.40
2018-07-21T21:50:21.569Z,2.30
2018-07-21T21:52:50.999Z,2.67
2018-07-21T21:55:20.663Z,3.57
2018-07-21T21:57:49.465Z,2.63
2018-07-21T22:00:18.164Z,2.60
2018-07-21T22:02:47.811Z,3.87
2018-07-21T22:05:16.643Z,4.17
2018-07-21T22:07:45.429Z,3.90
2018-07-21T22:10:14.296Z,3.83
2018-07-21T22:12:43.069Z,2.90
2018-07-21T22:15:21.891Z,2.40
2018-07-21T22:17:51.560Z,4.77
2018-07-21T22:20:20.320Z,2.00
2018-07-21T22:22:49.131Z,4.40
2018-07-21T22:25:18.471Z,3.20
2018-07-21T22:27:47.990Z,2.90
2018-07-21T22:30:20.923Z,3.07
2018-07-21T22:32:49.749Z,3.07
2018-07-21T22:35:18.559Z,4.10
2018-07-21T22:37:47.339Z,4.97
2018-07-21T22:40:16.307Z,2.13
2018-07-21T22:42:45.183Z,2.53
2018-07-21T22:45:13.967Z,3.27
2018-07-21T22:47:42.752Z,3.77
2018-07-21T22:50:11.521Z,4.27
2018-07-21T22:52:41.552Z,6.67
2018-07-21T22:55:11.062Z,2.40
2018-07-21T22:57:39.825Z,2.70
2018-07-21T23:00:09.430Z,2.07
2018-07-21T23:02:39.317Z,2.57
2018-07-21T23:05:08.249Z,2.37
2018-07-21T23:07:37.129Z,3.83
2018-07-21T23:10:07.183Z,4.57
2018-07-21T23:12:36.463Z,4.03
2018-07-21T23:15:06.577Z,3.17
2018-07-21T23:17:35.391Z,3.33
2018-07-21T23:20:05.581Z,2.53
2018-07-21T23:22:34.534Z,2.83
2018-07-21T23:25:04.228Z,2.63
2018-07-21T23:27:34.023Z,3.17
2018-07-21T23:30:04.086Z,3.50
2018-07-21T23:32:34.295Z,3.70
2018-07-21T23:35:03.343Z,4.60
2018-07-21T23:37:32.420Z,2.80
2018-07-21T23:40:01.335Z,2.93
2018-07-21T23:42:30.133Z,2.47
2018-07-21T23:44:59.039Z,3.20
2018-07-21T23:47:27.880Z,2.50
2018-07-21T23:49:56.635Z,2.87
2018-07-21T23:52:25.935Z,4.83
2018-07-21T23:54:54.707Z,4.77
2018-07-21T23:57:24.140Z,3.00
2018-07-21T23:59:52.899Z,3.30
